Time;durP1;ratioP1;P1;durP2;ratioP2;P2;SDS_P1;SDS_P2;PMS_P1;PMS_P2;Temp;Humidity;BMP_temperature;BMP_pressure;BME280_temperature;BME280_humidity;BME280_pressure;Samples;Min_cycle;Max_cycle;Signal;HPM_P1;HPM_P2
2022/05/14 00:00:13;;;;;;;;;;;;;;;;;;1033192;28;3835;-58
2022/05/14 00:01:04;;;;;;;;;;;;;;;;;;1032382;28;4175;-54
2022/05/14 00:01:34;;;;;;;;;;;;;;;;;;1028762;28;2908;-53
2022/05/14 00:02:04;;;;;;;;;;;;;;;;;;1029539;28;4075;-58
2022/05/14 00:02:35;;;;;;;;;;;;;;;;;;1032318;28;3413;-52
2022/05/14 00:03:05;;;;;;;;;;;;;;;;;;1032974;28;3881;-55
2022/05/14 00:03:38;;;;;;;;;;;;;;;;;;1034777;28;2251;-56
2022/05/14 00:04:10;;;;;;;;;;;;;;;;;;1033199;28;4035;-58
2022/05/14 00:04:47;;;;;;;;;;;;;;;;;;1034087;28;4138;-58
2022/05/14 00:05:19;;;;;;;;;;;;;;;;;;1033512;28;3902;-55
2022/05/14 00:05:49;;;;;;;;;;;;;;;;;;1034320;28;2898;-58
2022/05/14 00:06:21;;;;;;;;;;;;;;;;;;1033534;28;4153;-52
2022/05/14 00:06:51;;;;;;;;;;;;;;;;;;1033977;28;3872;-55
2022/05/14 00:07:22;;;;;;;;;;;;;;;;;;1033622;28;997;-55
2022/05/14 00:07:52;;;;;;;;;;;;;;;;;;1032315;28;4103;-52
2022/05/14 00:08:23;;;;;;;;;;;;;;;;;;1033414;28;1036;-55
2022/05/14 00:08:53;;;;;;;;;;;;;;;;;;1031692;28;4079;-56
2022/05/14 00:09:24;;;;;;;;;;;;;;;;;;1034821;28;3870;-53
2022/05/14 00:09:54;;;;;;;;;;;;;;;;;;1033895;28;4179;-55
2022/05/14 00:10:26;;;;;;;;;;;;;;;;;;1033829;28;3839;-54
2022/05/14 00:13:24;;;;;;;;;;;;;;;;;;1034027;28;3784;-54
2022/05/14 00:13:55;;;;;;;;;;;;;;;;;;1033929;28;4727;-55
2022/05/14 00:14:25;;;;;;;;;;;;;;;;;;1034515;28;1288;-53
2022/05/14 00:14:55;;;;;;;;;;;;;;;;;;1033329;28;3950;-57
2022/05/14 00:15:25;;;;;;;;;;;;;;;;;;1034114;28;3497;-51
2022/05/14 00:15:56;;;;;;;;;;;;;;;;;;1033967;28;3893;-55
2022/05/14 00:16:26;;;;;;;;;;;;;;;;;;1034495;28;1713;-50
2022/05/14 00:16:56;;;;;;;;;;;;;;;;;;1033077;28;4059;-57
2022/05/14 00:17:27;;;;;;;;;;;;;;;;;;1034522;28;2364;-56
2022/05/14 00:18:04;;;;;;;;;;;;;;;;;;1034090;28;3912;-51
2022/05/14 00:18:41;;;;;;;;;;;;;;;;;;1030414;28;1247;-54
2022/05/14 00:19:18;;;;;;;;;;;;;;;;;;1030392;28;3878;-54
2022/05/14 00:19:48;;;;;;;;;;;;;;;;;;1030107;28;3831;-55
2022/05/14 00:20:19;;;;;;;;;;;;;;;;;;1030279;28;3851;-51
2022/05/14 00:20:52;;;;;;;;;;;;;;;;;;1030535;28;3276;-57
2022/05/14 00:21:23;;;;;;;;;;;;;;;;;;1030383;28;3782;-53
2022/05/14 00:21:53;;;;;;;;;;;;;;;;;;1029787;28;3931;-52
2022/05/14 00:22:23;;;;;;;;;;;;;;;;;;1031139;28;1254;-54
2022/05/14 00:22:54;;;;;;;;;;;;;;;;;;1029936;28;3927;-49
2022/05/14 00:23:25;;;;;;;;;;;;;;;;;;1030238;28;2228;-53
2022/05/14 00:23:58;;;;;;;;;;;;;;;;;;1030143;28;3867;-52
2022/05/14 00:24:28;;;;;;;;;;;;;;;;;;1030209;28;1092;-52
2022/05/14 00:24:58;;;;;;;;;;;;;;;;;;1029398;28;4089;-49
2022/05/14 00:25:29;;;;;;;;;;;;;;;;;;1030230;28;1038;-55
2022/05/14 00:26:00;;;;;;;;;;;;;;;;;;1029786;28;4167;-53
2022/05/14 00:26:30;;;;;;;;;;;;;;;;;;1029580;28;1211;-51
2022/05/14 00:27:00;;;;;;;;;;;;;;;;;;1030613;28;3943;-56
2022/05/14 00:27:30;;;;;;;;;;;;;;;;;;1029184;28;1895;-55
2022/05/14 00:28:01;;;;;;;;;;;;;;;;;;1029754;28;4000;-55
2022/05/14 00:28:31;;;;;;;;;;;;;;;;;;1030031;28;1066;-55
2022/05/14 00:29:03;;;;;;;;;;;;;;;;;;1029540;28;3908;-52
2022/05/14 00:29:33;;;;;;;;;;;;;;;;;;1030608;28;3213;-53
2022/05/14 00:30:03;;;;;;;;;;;;;;;;;;1030765;28;4078;-51
2022/05/14 00:30:34;;;;;;;;;;;;;;;;;;1028682;28;3823;-58
2022/05/14 00:31:04;;;;;;;;;;;;;;;;;;1030220;28;3911;-55
2022/05/14 00:31:34;;;;;;;;;;;;;;;;;;1028624;28;2829;-57
2022/05/14 00:32:05;;;;;;;;;;;;;;;;;;1029582;28;3924;-56
2022/05/14 00:32:37;;;;;;;;;;;;;;;;;;1030217;28;3638;-52
2022/05/14 00:33:08;;;;;;;;;;;;;;;;;;1029883;28;4103;-52
2022/05/14 00:33:38;;;;;;;;;;;;;;;;;;1030936;28;2794;-55
2022/05/14 00:34:08;;;;;;;;;;;;;;;;;;1029837;28;4933;-55
2022/05/14 00:34:38;;;;;;;;;;;;;;;;;;1030418;28;1274;-54
2022/05/14 00:35:09;;;;;;;;;;;;;;;;;;1029801;28;3967;-54
2022/05/14 00:35:40;;;;;;;;;;;;;;;;;;1030155;28;3945;-53
2022/05/14 00:36:12;;;;;;;;;;;;;;;;;;1029237;28;3915;-52
2022/05/14 00:36:43;;;;;;;;;;;;;;;;;;1030326;28;3936;-52
2022/05/14 00:37:13;;;;;;;;;;;;;;;;;;1029807;28;3975;-55
2022/05/14 00:37:44;;;;;;;;;;;;;;;;;;1029812;28;2104;-52
2022/05/14 00:38:14;;;;;;;;;;;;;;;;;;1029272;28;3896;-54
2022/05/14 00:38:45;;;;;;;;;;;;;;;;;;1029941;28;1793;-53
2022/05/14 00:39:15;;;;;;;;;;;;;;;;;;1029675;28;4413;-55
2022/05/14 00:39:45;;;;;;;;;;;;;;;;;;1029538;28;1310;-53
2022/05/14 00:40:23;;;;;;;;;;;;;;;;;;1028070;28;4861;-54
2022/05/14 00:40:56;;;;;;;;;;;;;;;;;;1027238;28;4094;-55
2022/05/14 00:41:27;;;;;;;;;;;;;;;;;;1029304;28;1327;-57
2022/05/14 00:41:57;;;;;;;;;;;;;;;;;;1029181;28;3906;-53
2022/05/14 00:42:27;;;;;;;;;;;;;;;;;;1030292;28;3191;-54
2022/05/14 00:42:59;;;;;;;;;;;;;;;;;;1029807;28;4250;-55
2022/05/14 00:43:29;;;;;;;;;;;;;;;;;;1031062;28;3712;-54
2022/05/14 00:44:00;;;;;;;;;;;;;;;;;;1029555;28;3921;-53
2022/05/14 00:44:30;;;;;;;;;;;;;;;;;;1030235;28;2037;-54
2022/05/14 00:45:01;;;;;;;;;;;;;;;;;;1029350;28;4076;-57
2022/05/14 00:45:32;;;;;;;;;;;;;;;;;;1030518;28;2264;-54
2022/05/14 00:46:10;;;;;;;;;;;;;;;;;;1029859;28;4068;-53
2022/05/14 00:46:45;;;;;;;;;;;;;;;;;;1029947;28;1160;-54
2022/05/14 00:47:16;;;;;;;;;;;;;;;;;;1029618;28;4270;-51
2022/05/14 00:47:49;;;;;;;;;;;;;;;;;;1031015;28;971;-52
2022/05/14 00:48:19;;;;;;;;;;;;;;;;;;1029720;28;4153;-55
2022/05/14 00:48:58;;;;;;;;;;;;;;;;;;1029548;28;3914;-53
2022/05/14 00:49:29;;;;;;;;;;;;;;;;;;1029731;28;3881;-55
2022/05/14 00:49:59;;;;;;;;;;;;;;;;;;1030495;28;3919;-53
2022/05/14 00:50:34;;;;;;;;;;;;;;;;;;1029183;28;3697;-58
2022/05/14 00:51:05;;;;;;;;;;;;;;;;;;1028002;28;3871;-54
2022/05/14 00:51:36;;;;;;;;;;;;;;;;;;1030680;28;3761;-52
2022/05/14 00:52:10;;;;;;;;;;;;;;;;;;1029771;28;4186;-54
2022/05/14 00:52:41;;;;;;;;;;;;;;;;;;1031147;28;1034;-57
2022/05/14 00:53:18;;;;;;;;;;;;;;;;;;1029266;28;4210;-51
2022/05/14 00:53:51;;;;;;;;;;;;;;;;;;1030952;28;3719;-54
2022/05/14 00:54:32;;;;;;;;;;;;;;;;;;1030208;28;3834;-56
2022/05/14 00:55:04;;;;;;;;;;;;;;;;;;1029672;28;4048;-56
2022/05/14 00:55:35;;;;;;;;;;;;;;;;;;1030598;28;2073;-54
2022/05/14 00:56:08;;;;;;;;;;;;;;;;;;1030362;28;4179;-55
2022/05/14 00:56:40;;;;;;;;;;;;;;;;;;1030320;28;3362;-52
2022/05/14 00:57:13;;;;;;;;;;;;;;;;;;1029318;28;3941;-55
2022/05/14 00:57:45;;;;;;;;;;;;;;;;;;1025687;28;1058;-58
2022/05/14 00:58:34;;;;;;;;;;;;;;;;;;1025032;28;4042;-55
2022/05/14 00:59:06;;;;;;;;;;;;;;;;;;1025302;28;4065;-54
2022/05/14 00:59:36;;;;;;;;;;;;;;;;;;1029120;28;963;-55
2022/05/14 01:00:09;;;;;;;;;;;;;;;;;;1028607;28;3974;-52
2022/05/14 01:00:39;;;;;;;;;;;;;;;;;;1030026;28;3601;-55
2022/05/14 01:01:09;;;;;;;;;;;;;;;;;;1029816;28;4083;-54
2022/05/14 01:01:40;;;;;;;;;;;;;;;;;;1025054;28;3522;-55
2022/05/14 01:02:10;;;;;;;;;;;;;;;;;;1025161;28;3905;-55
2022/05/14 01:02:41;;;;;;;;;;;;;;;;;;1025556;28;1171;-52
2022/05/14 01:03:11;;;;;;;;;;;;;;;;;;1024746;28;4156;-57
2022/05/14 01:03:41;;;;;;;;;;;;;;;;;;1030322;28;3550;-53
2022/05/14 01:04:12;;;;;;;;;;;;;;;;;;1029722;28;4203;-54
2022/05/14 01:04:43;;;;;;;;;;;;;;;;;;1030970;28;1031;-58
2022/05/14 01:05:13;;;;;;;;;;;;;;;;;;1029703;28;3859;-54
2022/05/14 01:05:44;;;;;;;;;;;;;;;;;;1029440;28;3080;-55
2022/05/14 01:06:17;;;;;;;;;;;;;;;;;;1029897;28;3910;-56
2022/05/14 01:06:49;;;;;;;;;;;;;;;;;;1029633;28;3708;-55
2022/05/14 01:07:20;;;;;;;;;;;;;;;;;;1029400;28;4113;-54
2022/05/14 01:07:52;;;;;;;;;;;;;;;;;;1029697;28;3850;-52
2022/05/14 01:08:23;;;;;;;;;;;;;;;;;;1030234;28;971;-55
2022/05/14 01:08:53;;;;;;;;;;;;;;;;;;1029074;28;4096;-55
2022/05/14 01:09:24;;;;;;;;;;;;;;;;;;1030387;28;1004;-53
2022/05/14 01:09:59;;;;;;;;;;;;;;;;;;1029757;28;4558;-55
2022/05/14 01:10:32;;;;;;;;;;;;;;;;;;1029950;28;3802;-57
2022/05/14 01:11:03;;;;;;;;;;;;;;;;;;1029543;28;4009;-54
2022/05/14 01:11:34;;;;;;;;;;;;;;;;;;1029830;28;1269;-52
2022/05/14 01:12:05;;;;;;;;;;;;;;;;;;1031993;28;3937;-56
2022/05/14 01:12:35;;;;;;;;;;;;;;;;;;1032549;28;4099;-52
2022/05/14 01:13:06;;;;;;;;;;;;;;;;;;1032006;28;4002;-55
2022/05/14 01:13:37;;;;;;;;;;;;;;;;;;1033222;28;2761;-56
2022/05/14 01:14:08;;;;;;;;;;;;;;;;;;1029883;28;3974;-51
2022/05/14 01:14:38;;;;;;;;;;;;;;;;;;1028965;28;947;-55
2022/05/14 01:15:14;;;;;;;;;;;;;;;;;;1027849;28;4102;-53
2022/05/14 01:15:52;;;;;;;;;;;;;;;;;;1029296;28;967;-55
2022/05/14 01:16:22;;;;;;;;;;;;;;;;;;1027898;28;3964;-53
2022/05/14 01:16:52;;;;;;;;;;;;;;;;;;1029738;28;3964;-51
2022/05/14 01:17:23;;;;;;;;;;;;;;;;;;1030066;28;1283;-55
2022/05/14 01:17:53;;;;;;;;;;;;;;;;;;1029563;28;4110;-54
2022/05/14 01:18:31;;;;;;;;;;;;;;;;;;1033302;28;4098;-57
2022/05/14 01:19:10;;;;;;;;;;;;;;;;;;1033655;28;4060;-58
2022/05/14 01:19:46;;;;;;;;;;;;;;;;;;1034347;28;995;-54
2022/05/14 01:20:17;;;;;;;;;;;;;;;;;;1033409;28;3886;-55
2022/05/14 01:20:51;;;;;;;;;;;;;;;;;;1034806;28;1054;-51
2022/05/14 01:21:27;;;;;;;;;;;;;;;;;;1033787;28;3989;-54
2022/05/14 01:22:00;;;;;;;;;;;;;;;;;;1034598;28;4096;-54
2022/05/14 01:22:42;;;;;;;;;;;;;;;;;;1034297;28;1027;-55
2022/05/14 01:23:16;;;;;;;;;;;;;;;;;;1033475;28;3901;-53
2022/05/14 01:26:58;;;;;;;;;;;;;;;;;;1034290;28;4164;-51
2022/05/14 01:27:28;;;;;;;;;;;;;;;;;;1034264;28;2112;-55
2022/05/14 01:27:59;;;;;;;;;;;;;;;;;;1032730;28;3904;-54
2022/05/14 01:28:29;;;;;;;;;;;;;;;;;;1033599;28;1231;-53
2022/05/14 01:29:05;;;;;;;;;;;;;;;;;;1030139;28;3910;-56
2022/05/14 01:29:36;;;;;;;;;;;;;;;;;;1033735;28;2838;-52
2022/05/14 01:30:08;;;;;;;;;;;;;;;;;;1033177;28;4028;-56
2022/05/14 01:30:45;;;;;;;;;;;;;;;;;;1033672;28;3303;-53
2022/05/14 01:31:15;;;;;;;;;;;;;;;;;;1033301;28;3840;-53
2022/05/14 01:31:46;;;;;;;;;;;;;;;;;;1033351;28;3729;-51
2022/05/14 01:32:17;;;;;;;;;;;;;;;;;;1033180;28;3870;-57
2022/05/14 01:33:04;;;;;;;;;;;;;;;;;;1034169;28;4104;-55
2022/05/14 01:33:36;;;;;;;;;;;;;;;;;;1033119;28;3994;-57
2022/05/14 01:34:11;;;;;;;;;;;;;;;;;;1032968;28;4060;-55
2022/05/14 01:34:41;;;;;;;;;;;;;;;;;;1034039;28;1003;-54
2022/05/14 01:35:15;;;;;;;;;;;;;;;;;;1033842;28;3872;-55
2022/05/14 01:35:52;;;;;;;;;;;;;;;;;;1033237;28;4051;-55
2022/05/14 01:36:22;;;;;;;;;;;;;;;;;;1033583;28;3016;-53
2022/05/14 01:36:52;;;;;;;;;;;;;;;;;;1033467;28;4121;-58
2022/05/14 01:37:24;;;;;;;;;;;;;;;;;;1034547;28;931;-51
2022/05/14 01:37:54;;;;;;;;;;;;;;;;;;1033239;28;3868;-53
2022/05/14 01:38:25;;;;;;;;;;;;;;;;;;1033988;28;2364;-55
2022/05/14 01:38:55;;;;;;;;;;;;;;;;;;1033926;28;3889;-50
2022/05/14 01:39:25;;;;;;;;;;;;;;;;;;1033656;28;1221;-57
2022/05/14 01:39:56;;;;;;;;;;;;;;;;;;1033368;28;4071;-51
2022/05/14 01:40:26;;;;;;;;;;;;;;;;;;1034425;28;3754;-56
2022/05/14 01:40:56;;;;;;;;;;;;;;;;;;1035293;28;4074;-58
2022/05/14 01:41:27;;;;;;;;;;;;;;;;;;1033918;28;926;-53
2022/05/14 01:41:57;;;;;;;;;;;;;;;;;;1033100;28;3863;-53
2022/05/14 01:42:27;;;;;;;;;;;;;;;;;;1034459;28;2680;-53
2022/05/14 01:42:58;;;;;;;;;;;;;;;;;;1033633;28;3882;-56
2022/05/14 01:43:28;;;;;;;;;;;;;;;;;;1033886;28;1533;-57
2022/05/14 01:43:59;;;;;;;;;;;;;;;;;;1033824;28;3983;-52
2022/05/14 01:44:29;;;;;;;;;;;;;;;;;;1033458;28;1126;-55
2022/05/14 01:44:59;;;;;;;;;;;;;;;;;;1033533;28;4081;-54
2022/05/14 01:45:30;;;;;;;;;;;;;;;;;;1033869;28;954;-56
2022/05/14 01:46:00;;;;;;;;;;;;;;;;;;1033252;28;3920;-57
2022/05/14 01:46:31;;;;;;;;;;;;;;;;;;1033160;28;3712;-54
2022/05/14 01:47:01;;;;;;;;;;;;;;;;;;1033601;28;4079;-54
2022/05/14 01:47:35;;;;;;;;;;;;;;;;;;1032622;28;4032;-54
2022/05/14 01:48:05;;;;;;;;;;;;;;;;;;1030642;28;3961;-55
2022/05/14 01:48:35;;;;;;;;;;;;;;;;;;1031804;28;1646;-53
2022/05/14 01:49:06;;;;;;;;;;;;;;;;;;1032614;28;4256;-51
2022/05/14 01:49:36;;;;;;;;;;;;;;;;;;1034079;28;1180;-56
2022/05/14 01:50:07;;;;;;;;;;;;;;;;;;1033808;28;3844;-55
2022/05/14 01:50:38;;;;;;;;;;;;;;;;;;1034061;28;3828;-53
2022/05/14 01:51:08;;;;;;;;;;;;;;;;;;1033315;28;3905;-52
2022/05/14 01:51:38;;;;;;;;;;;;;;;;;;1033353;28;3931;-54
2022/05/14 01:52:09;;;;;;;;;;;;;;;;;;1033190;28;3825;-53
2022/05/14 01:52:39;;;;;;;;;;;;;;;;;;1034101;28;3231;-55
2022/05/14 01:53:09;;;;;;;;;;;;;;;;;;1032707;28;3884;-54
2022/05/14 01:53:40;;;;;;;;;;;;;;;;;;1033584;28;3766;-53
2022/05/14 01:54:10;;;;;;;;;;;;;;;;;;1035135;28;5189;-55
2022/05/14 01:54:40;;;;;;;;;;;;;;;;;;1033471;28;2028;-54
2022/05/14 01:55:11;;;;;;;;;;;;;;;;;;1033042;28;4123;-55
2022/05/14 01:55:41;;;;;;;;;;;;;;;;;;1033668;28;3710;-55
2022/05/14 01:56:11;;;;;;;;;;;;;;;;;;1031690;28;4120;-55
2022/05/14 01:56:42;;;;;;;;;;;;;;;;;;1031321;28;3657;-53
2022/05/14 01:57:12;;;;;;;;;;;;;;;;;;1031638;28;4060;-52
2022/05/14 01:57:42;;;;;;;;;;;;;;;;;;1031653;28;3124;-54
2022/05/14 01:59:02;;;;;;;;;;;;;;;;;;1032932;28;3909;-53
2022/05/14 01:59:32;;;;;;;;;;;;;;;;;;1034543;28;2953;-52
2022/05/14 02:00:07;;;;;;;;;;;;;;;;;;1032530;28;3972;-52
2022/05/14 02:00:37;;;;;;;;;;;;;;;;;;1031408;28;4705;-55
2022/05/14 02:01:15;;;;;;;;;;;;;;;;;;1033026;28;4106;-57
2022/05/14 02:01:45;;;;;;;;;;;;;;;;;;1033192;28;3689;-56
2022/05/14 02:02:16;;;;;;;;;;;;;;;;;;1032608;28;4307;-54
2022/05/14 02:02:46;;;;;;;;;;;;;;;;;;1033414;28;3908;-52
2022/05/14 02:03:16;;;;;;;;;;;;;;;;;;1032714;28;3930;-51
2022/05/14 02:03:48;;;;;;;;;;;;;;;;;;1033343;28;1305;-55
2022/05/14 02:04:18;;;;;;;;;;;;;;;;;;1033154;28;3859;-56
2022/05/14 02:04:49;;;;;;;;;;;;;;;;;;1032117;28;3999;-52
2022/05/14 02:05:19;;;;;;;;;;;;;;;;;;1031513;28;3761;-55
2022/05/14 02:05:49;;;;;;;;;;;;;;;;;;1034082;28;967;-57
2022/05/14 02:06:20;;;;;;;;;;;;;;;;;;1032687;28;3965;-53
2022/05/14 02:06:50;;;;;;;;;;;;;;;;;;1034802;28;4094;-55
2022/05/14 02:07:20;;;;;;;;;;;;;;;;;;1032944;28;3825;-56
2022/05/14 02:07:51;;;;;;;;;;;;;;;;;;1033544;28;5044;-56
2022/05/14 02:08:21;;;;;;;;;;;;;;;;;;1033618;28;1943;-51
2022/05/14 02:08:51;;;;;;;;;;;;;;;;;;1033796;28;4239;-57
2022/05/14 02:09:21;;;;;;;;;;;;;;;;;;1035989;28;3590;-53
2022/05/14 02:09:52;;;;;;;;;;;;;;;;;;1036204;28;4181;-56
2022/05/14 02:10:22;;;;;;;;;;;;;;;;;;1036186;28;3734;-54
2022/05/14 02:10:52;;;;;;;;;;;;;;;;;;1036666;28;4064;-53
2022/05/14 02:11:23;;;;;;;;;;;;;;;;;;1033232;28;3722;-55
2022/05/14 02:11:53;;;;;;;;;;;;;;;;;;1031918;28;3882;-53
2022/05/14 02:12:23;;;;;;;;;;;;;;;;;;1034206;28;4194;-52
2022/05/14 02:12:53;;;;;;;;;;;;;;;;;;1033443;28;3891;-57
2022/05/14 02:13:25;;;;;;;;;;;;;;;;;;1033820;28;2899;-55
2022/05/14 02:13:55;;;;;;;;;;;;;;;;;;1033343;28;4120;-51
2022/05/14 02:14:25;;;;;;;;;;;;;;;;;;1033865;28;3748;-53
2022/05/14 02:14:55;;;;;;;;;;;;;;;;;;1032680;28;3808;-52
2022/05/14 02:15:26;;;;;;;;;;;;;;;;;;1032805;28;3025;-54
2022/05/14 02:15:56;;;;;;;;;;;;;;;;;;1033167;28;3961;-52
2022/05/14 02:16:26;;;;;;;;;;;;;;;;;;1029094;28;3822;-56
2022/05/14 02:16:57;;;;;;;;;;;;;;;;;;1028723;28;4085;-52
2022/05/14 02:17:28;;;;;;;;;;;;;;;;;;1030165;28;975;-55
2022/05/14 02:17:58;;;;;;;;;;;;;;;;;;1028355;28;4094;-57
2022/05/14 02:18:35;;;;;;;;;;;;;;;;;;1031072;28;3767;-53
2022/05/14 02:19:12;;;;;;;;;;;;;;;;;;1032022;28;3887;-51
2022/05/14 02:19:42;;;;;;;;;;;;;;;;;;1032623;28;1316;-55
2022/05/14 02:20:12;;;;;;;;;;;;;;;;;;1031243;28;4094;-56
2022/05/14 02:20:43;;;;;;;;;;;;;;;;;;1029622;28;3731;-55
2022/05/14 02:21:20;;;;;;;;;;;;;;;;;;1030293;28;3839;-52
2022/05/14 02:21:50;;;;;;;;;;;;;;;;;;1032726;28;3135;-54
2022/05/14 02:22:20;;;;;;;;;;;;;;;;;;1033846;28;4041;-54
2022/05/14 02:22:51;;;;;;;;;;;;;;;;;;1032514;28;4174;-53
2022/05/14 02:23:22;;;;;;;;;;;;;;;;;;1033695;28;2828;-55
2022/05/14 02:23:52;;;;;;;;;;;;;;;;;;1035991;28;3885;-53
2022/05/14 02:24:23;;;;;;;;;;;;;;;;;;1036487;28;1194;-55
2022/05/14 02:24:54;;;;;;;;;;;;;;;;;;1035521;28;3968;-52
2022/05/14 02:25:24;;;;;;;;;;;;;;;;;;1036038;28;3075;-55
2022/05/14 02:26:02;;;;;;;;;;;;;;;;;;1029550;28;4153;-54
2022/05/14 02:26:32;;;;;;;;;;;;;;;;;;1029580;28;3766;-54
2022/05/14 02:27:03;;;;;;;;;;;;;;;;;;1029132;28;3886;-50
2022/05/14 02:27:33;;;;;;;;;;;;;;;;;;1036467;28;3585;-54
2022/05/14 02:28:03;;;;;;;;;;;;;;;;;;1034519;28;4015;-51
2022/05/14 02:28:34;;;;;;;;;;;;;;;;;;1035932;28;3963;-55
2022/05/14 02:29:04;;;;;;;;;;;;;;;;;;1035256;28;4124;-53
2022/05/14 02:29:54;;;;;;;;;;;;;;;;;;1029667;28;1038;-57
2022/05/14 02:30:24;;;;;;;;;;;;;;;;;;1029449;28;3948;-55
2022/05/14 02:30:54;;;;;;;;;;;;;;;;;;1029183;28;4064;-53
2022/05/14 02:31:24;;;;;;;;;;;;;;;;;;1030107;28;3150;-56
2022/05/14 02:31:55;;;;;;;;;;;;;;;;;;1030149;28;4095;-55
2022/05/14 02:32:26;;;;;;;;;;;;;;;;;;1029222;28;2759;-50
2022/05/14 02:32:56;;;;;;;;;;;;;;;;;;1029049;28;4449;-57
2022/05/14 02:33:27;;;;;;;;;;;;;;;;;;1029757;28;1223;-55
2022/05/14 02:33:57;;;;;;;;;;;;;;;;;;1029163;28;3999;-54
2022/05/14 02:34:27;;;;;;;;;;;;;;;;;;1029002;28;3125;-57
2022/05/14 02:34:59;;;;;;;;;;;;;;;;;;1028963;28;4018;-56
2022/05/14 02:35:29;;;;;;;;;;;;;;;;;;1029479;28;1044;-54
2022/05/14 02:35:59;;;;;;;;;;;;;;;;;;1028855;28;4064;-52
2022/05/14 02:36:30;;;;;;;;;;;;;;;;;;1031879;28;3876;-56
2022/05/14 02:37:00;;;;;;;;;;;;;;;;;;1031899;28;3937;-50
2022/05/14 02:37:30;;;;;;;;;;;;;;;;;;1032517;28;1089;-52
2022/05/14 02:38:00;;;;;;;;;;;;;;;;;;1032450;28;4048;-56
2022/05/14 02:38:32;;;;;;;;;;;;;;;;;;1029688;28;987;-58
2022/05/14 02:39:03;;;;;;;;;;;;;;;;;;1029112;28;3990;-55
2022/05/14 02:39:33;;;;;;;;;;;;;;;;;;1029900;28;917;-54
2022/05/14 02:40:04;;;;;;;;;;;;;;;;;;1029664;28;3936;-57
2022/05/14 02:40:34;;;;;;;;;;;;;;;;;;1029475;28;3756;-57
2022/05/14 02:41:05;;;;;;;;;;;;;;;;;;1029349;28;4046;-52
2022/05/14 02:41:35;;;;;;;;;;;;;;;;;;1029526;28;3765;-54
2022/05/14 02:42:05;;;;;;;;;;;;;;;;;;1029881;28;4043;-56
2022/05/14 02:42:36;;;;;;;;;;;;;;;;;;1029464;28;1532;-56
2022/05/14 02:43:06;;;;;;;;;;;;;;;;;;1028942;28;4093;-55
2022/05/14 02:43:36;;;;;;;;;;;;;;;;;;1029642;28;2759;-52
2022/05/14 02:44:07;;;;;;;;;;;;;;;;;;1028997;28;4142;-55
2022/05/14 02:44:37;;;;;;;;;;;;;;;;;;1029144;28;2964;-55
2022/05/14 02:45:08;;;;;;;;;;;;;;;;;;1029664;28;4159;-56
2022/05/14 02:45:38;;;;;;;;;;;;;;;;;;1033265;28;3108;-52
2022/05/14 02:46:09;;;;;;;;;;;;;;;;;;1032971;28;4070;-54
2022/05/14 02:46:39;;;;;;;;;;;;;;;;;;1033701;28;3801;-52
2022/05/14 02:47:10;;;;;;;;;;;;;;;;;;1032205;28;4324;-55
2022/05/14 02:47:40;;;;;;;;;;;;;;;;;;1029342;28;3795;-56
2022/05/14 02:48:11;;;;;;;;;;;;;;;;;;1029498;28;4859;-55
2022/05/14 02:48:41;;;;;;;;;;;;;;;;;;1029512;28;2603;-54
2022/05/14 02:49:12;;;;;;;;;;;;;;;;;;1029112;28;4116;-54
2022/05/14 02:49:42;;;;;;;;;;;;;;;;;;1029261;28;3666;-55
2022/05/14 02:50:12;;;;;;;;;;;;;;;;;;1029554;28;4051;-55
2022/05/14 02:50:42;;;;;;;;;;;;;;;;;;1029962;28;3700;-53
2022/05/14 02:51:13;;;;;;;;;;;;;;;;;;1029136;28;4069;-55
2022/05/14 02:51:43;;;;;;;;;;;;;;;;;;1029971;28;3813;-52
2022/05/14 02:52:13;;;;;;;;;;;;;;;;;;1029550;28;4103;-52
2022/05/14 02:52:44;;;;;;;;;;;;;;;;;;1029643;28;2164;-49
2022/05/14 02:53:14;;;;;;;;;;;;;;;;;;1028752;28;3849;-57
2022/05/14 02:53:45;;;;;;;;;;;;;;;;;;1029886;28;3945;-57
2022/05/14 02:54:15;;;;;;;;;;;;;;;;;;1028587;28;3988;-57
2022/05/14 02:54:46;;;;;;;;;;;;;;;;;;1029532;28;3647;-54
2022/05/14 02:55:16;;;;;;;;;;;;;;;;;;1029379;28;4037;-57
2022/05/14 02:55:46;;;;;;;;;;;;;;;;;;1029013;28;2282;-50
2022/05/14 02:56:16;;;;;;;;;;;;;;;;;;1029309;28;3848;-52
2022/05/14 02:56:47;;;;;;;;;;;;;;;;;;1029510;28;3477;-56
2022/05/14 02:57:17;;;;;;;;;;;;;;;;;;1033375;28;4128;-52
2022/05/14 02:57:48;;;;;;;;;;;;;;;;;;1032403;28;3622;-54
2022/05/14 02:59:06;;;;;;;;;;;;;;;;;;1033300;28;3789;-57
2022/05/14 02:59:08;;;;;;;;;;;;;;;;;;1030710;28;4185;-57
2022/05/14 02:59:38;;;;;;;;;;;;;;;;;;1029508;28;979;-56
2022/05/14 03:00:10;;;;;;;;;;;;;;;;;;1029181;28;4248;-56
2022/05/14 03:00:40;;;;;;;;;;;;;;;;;;1030014;28;3792;-53
2022/05/14 03:01:11;;;;;;;;;;;;;;;;;;1029292;28;4065;-55
2022/05/14 03:01:50;;;;;;;;;;;;;;;;;;1029128;28;1289;-55
2022/05/14 03:02:21;;;;;;;;;;;;;;;;;;1028964;28;3872;-54
2022/05/14 03:02:51;;;;;;;;;;;;;;;;;;1029016;28;3893;-52
2022/05/14 03:03:21;;;;;;;;;;;;;;;;;;1030444;28;3039;-55
2022/05/14 03:03:52;;;;;;;;;;;;;;;;;;1028657;28;3920;-54
2022/05/14 03:04:25;;;;;;;;;;;;;;;;;;1030243;28;1509;-51
2022/05/14 03:04:55;;;;;;;;;;;;;;;;;;1028841;28;3921;-54
2022/05/14 03:05:27;;;;;;;;;;;;;;;;;;1029378;28;896;-55
2022/05/14 03:05:57;;;;;;;;;;;;;;;;;;1028978;28;4065;-55
2022/05/14 03:06:28;;;;;;;;;;;;;;;;;;1029947;28;2072;-53
2022/05/14 03:06:58;;;;;;;;;;;;;;;;;;1029357;28;4056;-56
2022/05/14 03:07:29;;;;;;;;;;;;;;;;;;1029367;28;955;-55
2022/05/14 03:07:59;;;;;;;;;;;;;;;;;;1029396;28;3905;-52
2022/05/14 03:08:29;;;;;;;;;;;;;;;;;;1029515;28;2315;-55
2022/05/14 03:08:59;;;;;;;;;;;;;;;;;;1031400;28;4201;-52
2022/05/14 03:09:30;;;;;;;;;;;;;;;;;;1032738;28;1215;-50
2022/05/14 03:10:00;;;;;;;;;;;;;;;;;;1031633;28;3904;-56
2022/05/14 03:10:30;;;;;;;;;;;;;;;;;;1032220;28;2798;-54
2022/05/14 03:11:00;;;;;;;;;;;;;;;;;;1029523;28;3917;-57
2022/05/14 03:11:32;;;;;;;;;;;;;;;;;;1029821;28;1014;-55
2022/05/14 03:12:02;;;;;;;;;;;;;;;;;;1028949;28;3941;-51
2022/05/14 03:12:33;;;;;;;;;;;;;;;;;;1033270;28;2092;-50
2022/05/14 03:13:03;;;;;;;;;;;;;;;;;;1032652;28;4066;-55
2022/05/14 03:13:34;;;;;;;;;;;;;;;;;;1034353;28;1097;-55
2022/05/14 03:14:04;;;;;;;;;;;;;;;;;;1032822;28;4063;-55
2022/05/14 03:14:34;;;;;;;;;;;;;;;;;;1030522;28;971;-52
2022/05/14 03:15:12;;;;;;;;;;;;;;;;;;1029866;28;4076;-52
2022/05/14 03:15:42;;;;;;;;;;;;;;;;;;1030531;28;3881;-55
2022/05/14 03:16:12;;;;;;;;;;;;;;;;;;1029987;28;3896;-54
2022/05/14 03:16:43;;;;;;;;;;;;;;;;;;1030164;28;3698;-55
2022/05/14 03:17:13;;;;;;;;;;;;;;;;;;1029451;28;4023;-55
2022/05/14 03:17:44;;;;;;;;;;;;;;;;;;1030690;28;959;-57
2022/05/14 03:18:21;;;;;;;;;;;;;;;;;;1030195;28;4138;-55
2022/05/14 03:18:58;;;;;;;;;;;;;;;;;;1030745;28;4094;-55
2022/05/14 03:19:35;;;;;;;;;;;;;;;;;;1031107;28;1012;-51
2022/05/14 03:20:07;;;;;;;;;;;;;;;;;;1030685;28;4063;-57
2022/05/14 03:20:37;;;;;;;;;;;;;;;;;;1029753;28;3827;-55
2022/05/14 03:21:08;;;;;;;;;;;;;;;;;;1030185;28;4053;-52
2022/05/14 03:21:38;;;;;;;;;;;;;;;;;;1030295;28;998;-58
2022/05/14 03:22:09;;;;;;;;;;;;;;;;;;1029348;28;4045;-56
2022/05/14 03:22:40;;;;;;;;;;;;;;;;;;1030727;28;2187;-54
2022/05/14 03:23:11;;;;;;;;;;;;;;;;;;1031014;28;3889;-56
2022/05/14 03:23:41;;;;;;;;;;;;;;;;;;1030908;28;2874;-52
2022/05/14 03:24:12;;;;;;;;;;;;;;;;;;1028162;28;4189;-54
2022/05/14 03:24:42;;;;;;;;;;;;;;;;;;1029176;28;2702;-56
2022/05/14 03:25:12;;;;;;;;;;;;;;;;;;1029077;28;4070;-54
2022/05/14 03:25:43;;;;;;;;;;;;;;;;;;1028357;28;3796;-55
2022/05/14 03:26:13;;;;;;;;;;;;;;;;;;1030116;28;3857;-52
2022/05/14 03:26:43;;;;;;;;;;;;;;;;;;1028141;28;4351;-57
2022/05/14 03:27:14;;;;;;;;;;;;;;;;;;1028620;28;3949;-55
2022/05/14 03:27:44;;;;;;;;;;;;;;;;;;1028647;28;3842;-53
2022/05/14 03:28:16;;;;;;;;;;;;;;;;;;1028818;28;3885;-57
2022/05/14 03:28:46;;;;;;;;;;;;;;;;;;1030613;28;2287;-56
2022/05/14 03:29:16;;;;;;;;;;;;;;;;;;1029781;28;3903;-53
2022/05/14 03:29:46;;;;;;;;;;;;;;;;;;1030672;28;1087;-52
2022/05/14 03:30:17;;;;;;;;;;;;;;;;;;1030237;28;3843;-54
2022/05/14 03:30:47;;;;;;;;;;;;;;;;;;1030834;28;2964;-52
2022/05/14 03:31:18;;;;;;;;;;;;;;;;;;1029489;28;4187;-58
2022/05/14 03:31:49;;;;;;;;;;;;;;;;;;1029300;28;2824;-54
2022/05/14 03:32:19;;;;;;;;;;;;;;;;;;1030942;28;4092;-57
2022/05/14 03:32:50;;;;;;;;;;;;;;;;;;1030416;28;2218;-55
2022/05/14 03:33:20;;;;;;;;;;;;;;;;;;1030134;28;3797;-52
2022/05/14 03:33:50;;;;;;;;;;;;;;;;;;1029112;28;2937;-56
2022/05/14 03:34:21;;;;;;;;;;;;;;;;;;1030372;28;4092;-55
2022/05/14 03:34:54;;;;;;;;;;;;;;;;;;1029946;28;3891;-51
2022/05/14 03:35:24;;;;;;;;;;;;;;;;;;1031010;28;1042;-55
2022/05/14 03:35:55;;;;;;;;;;;;;;;;;;1029634;28;3943;-56
2022/05/14 03:36:25;;;;;;;;;;;;;;;;;;1029999;28;3284;-55
2022/05/14 03:36:55;;;;;;;;;;;;;;;;;;1028826;28;3936;-54
2022/05/14 03:37:25;;;;;;;;;;;;;;;;;;1030971;28;2906;-54
2022/05/14 03:37:56;;;;;;;;;;;;;;;;;;1030179;28;4234;-57
2022/05/14 03:38:26;;;;;;;;;;;;;;;;;;1031073;28;1042;-52
2022/05/14 03:38:56;;;;;;;;;;;;;;;;;;1030060;28;3927;-56
2022/05/14 03:39:26;;;;;;;;;;;;;;;;;;1029981;28;2954;-56
2022/05/14 03:39:57;;;;;;;;;;;;;;;;;;1030288;28;3888;-54
2022/05/14 03:40:27;;;;;;;;;;;;;;;;;;1030298;28;1049;-53
2022/05/14 03:40:57;;;;;;;;;;;;;;;;;;1029657;28;4069;-55
2022/05/14 03:41:28;;;;;;;;;;;;;;;;;;1030549;28;1144;-54
2022/05/14 03:41:58;;;;;;;;;;;;;;;;;;1028616;28;3921;-54
2022/05/14 03:42:30;;;;;;;;;;;;;;;;;;1031388;28;2179;-52
2022/05/14 03:43:00;;;;;;;;;;;;;;;;;;1030785;28;4025;-56
2022/05/14 03:43:31;;;;;;;;;;;;;;;;;;1029205;28;1362;-53
2022/05/14 03:44:02;;;;;;;;;;;;;;;;;;1028959;28;4085;-55
2022/05/14 03:44:32;;;;;;;;;;;;;;;;;;1029027;28;1380;-56